sensor_id;sensor_type;location;lat;lon;timestamp;temperature;humidity
23231;DHT22;11784;49.818;8.632;2023-03-12T00:01:22;5.30;64.30
23231;DHT22;11784;49.818;8.632;2023-03-12T00:03:49;5.30;64.50
23231;DHT22;11784;49.818;8.632;2023-03-12T00:06:16;5.20;64.40
23231;DHT22;11784;49.818;8.632;2023-03-12T00:08:42;5.30;65.40
23231;DHT22;11784;49.818;8.632;2023-03-12T00:11:10;5.30;65.60
23231;DHT22;11784;49.818;8.632;2023-03-12T00:13:37;5.30;65.80
23231;DHT22;11784;49.818;8.632;2023-03-12T00:16:14;5.30;65.40
23231;DHT22;11784;49.818;8.632;2023-03-12T00:18:40;5.40;65.50
23231;DHT22;11784;49.818;8.632;2023-03-12T00:21:07;5.40;65.40
23231;DHT22;11784;49.818;8.632;2023-03-12T00:23:33;5.50;65.50
23231;DHT22;11784;49.818;8.632;2023-03-12T00:26:00;5.40;65.50
23231;DHT22;11784;49.818;8.632;2023-03-12T00:28:26;5.40;65.30
23231;DHT22;11784;49.818;8.632;2023-03-12T00:30:52;5.50;65.20
23231;DHT22;11784;49.818;8.632;2023-03-12T00:33:18;5.40;65.00
23231;DHT22;11784;49.818;8.632;2023-03-12T00:35:43;5.40;65.40
23231;DHT22;11784;49.818;8.632;2023-03-12T00:38:09;5.40;65.50
23231;DHT22;11784;49.818;8.632;2023-03-12T00:40:34;5.40;65.30
23231;DHT22;11784;49.818;8.632;2023-03-12T00:43:02;5.30;64.30
23231;DHT22;11784;49.818;8.632;2023-03-12T00:45:27;5.30;64.80
23231;DHT22;11784;49.818;8.632;2023-03-12T00:47:53;5.30;64.90
23231;DHT22;11784;49.818;8.632;2023-03-12T00:50:18;5.30;66.10
23231;DHT22;11784;49.818;8.632;2023-03-12T00:52:44;5.30;66.90
23231;DHT22;11784;49.818;8.632;2023-03-12T00:55:09;5.30;67.10
23231;DHT22;11784;49.818;8.632;2023-03-12T00:57:35;5.30;66.80
23231;DHT22;11784;49.818;8.632;2023-03-12T01:00:00;5.30;66.30
23231;DHT22;11784;49.818;8.632;2023-03-12T01:02:26;5.40;66.70
23231;DHT22;11784;49.818;8.632;2023-03-12T01:04:51;5.40;66.60
23231;DHT22;11784;49.818;8.632;2023-03-12T01:07:17;5.40;67.00
23231;DHT22;11784;49.818;8.632;2023-03-12T01:09:43;5.50;66.10
23231;DHT22;11784;49.818;8.632;2023-03-12T01:12:09;5.50;65.80
23231;DHT22;11784;49.818;8.632;2023-03-12T01:14:34;5.50;65.50
23231;DHT22;11784;49.818;8.632;2023-03-12T01:17:00;5.50;65.50
23231;DHT22;11784;49.818;8.632;2023-03-12T01:19:25;5.50;65.60
23231;DHT22;11784;49.818;8.632;2023-03-12T01:21:51;5.50;65.50
23231;DHT22;11784;49.818;8.632;2023-03-12T01:24:16;5.60;66.00
23231;DHT22;11784;49.818;8.632;2023-03-12T01:26:42;5.60;65.20
23231;DHT22;11784;49.818;8.632;2023-03-12T01:29:07;5.60;65.80
23231;DHT22;11784;49.818;8.632;2023-03-12T01:31:33;5.60;65.90
23231;DHT22;11784;49.818;8.632;2023-03-12T01:33:59;5.60;66.00
23231;DHT22;11784;49.818;8.632;2023-03-12T01:36:27;5.60;65.80
23231;DHT22;11784;49.818;8.632;2023-03-12T01:38:55;5.60;65.80
23231;DHT22;11784;49.818;8.632;2023-03-12T01:41:22;5.60;65.60
23231;DHT22;11784;49.818;8.632;2023-03-12T01:43:48;5.60;65.80
23231;DHT22;11784;49.818;8.632;2023-03-12T01:49:18;5.60;66.30
23231;DHT22;11784;49.818;8.632;2023-03-12T01:57:26;5.50;66.70
23231;DHT22;11784;49.818;8.632;2023-03-12T01:59:57;5.50;67.60
23231;DHT22;11784;49.818;8.632;2023-03-12T02:02:24;5.50;66.60
23231;DHT22;11784;49.818;8.632;2023-03-12T02:05:04;5.60;66.70
23231;DHT22;11784;49.818;8.632;2023-03-12T02:07:33;5.50;67.10
23231;DHT22;11784;49.818;8.632;2023-03-12T02:09:59;5.60;67.70
23231;DHT22;11784;49.818;8.632;2023-03-12T02:12:25;5.60;67.80
23231;DHT22;11784;49.818;8.632;2023-03-12T02:14:51;5.60;67.50
23231;DHT22;11784;49.818;8.632;2023-03-12T02:17:16;5.70;66.90
23231;DHT22;11784;49.818;8.632;2023-03-12T02:22:26;5.70;67.30
23231;DHT22;11784;49.818;8.632;2023-03-12T02:25:01;5.80;66.60
23231;DHT22;11784;49.818;8.632;2023-03-12T02:27:32;5.80;67.40
23231;DHT22;11784;49.818;8.632;2023-03-12T02:29:59;5.80;67.80
23231;DHT22;11784;49.818;8.632;2023-03-12T02:32:28;5.90;67.30
23231;DHT22;11784;49.818;8.632;2023-03-12T02:34:55;5.90;66.40
23231;DHT22;11784;49.818;8.632;2023-03-12T02:37:21;5.90;67.00
23231;DHT22;11784;49.818;8.632;2023-03-12T02:39:52;5.90;67.10
23231;DHT22;11784;49.818;8.632;2023-03-12T02:42:20;5.90;67.00
23231;DHT22;11784;49.818;8.632;2023-03-12T02:44:47;6.00;66.20
23231;DHT22;11784;49.818;8.632;2023-03-12T02:47:12;6.00;66.30
23231;DHT22;11784;49.818;8.632;2023-03-12T02:49:38;6.00;66.00
23231;DHT22;11784;49.818;8.632;2023-03-12T02:52:03;6.00;67.20
23231;DHT22;11784;49.818;8.632;2023-03-12T02:54:29;6.00;67.50
23231;DHT22;11784;49.818;8.632;2023-03-12T02:56:55;6.00;67.20
23231;DHT22;11784;49.818;8.632;2023-03-12T02:59:22;6.00;66.60
23231;DHT22;11784;49.818;8.632;2023-03-12T03:01:55;6.00;65.80
23231;DHT22;11784;49.818;8.632;2023-03-12T03:04:21;6.00;66.30
23231;DHT22;11784;49.818;8.632;2023-03-12T03:06:47;6.00;67.00
23231;DHT22;11784;49.818;8.632;2023-03-12T03:09:13;6.00;67.10
23231;DHT22;11784;49.818;8.632;2023-03-12T03:11:38;6.00;67.20
23231;DHT22;11784;49.818;8.632;2023-03-12T03:14:04;6.00;67.00
23231;DHT22;11784;49.818;8.632;2023-03-12T03:16:32;6.10;66.90
23231;DHT22;11784;49.818;8.632;2023-03-12T03:18:58;6.10;66.70
23231;DHT22;11784;49.818;8.632;2023-03-12T03:21:24;6.10;65.90
23231;DHT22;11784;49.818;8.632;2023-03-12T03:23:50;6.20;66.10
23231;DHT22;11784;49.818;8.632;2023-03-12T03:26:19;6.20;66.50
23231;DHT22;11784;49.818;8.632;2023-03-12T03:28:45;6.20;66.30
23231;DHT22;11784;49.818;8.632;2023-03-12T03:31:10;6.20;66.00
23231;DHT22;11784;49.818;8.632;2023-03-12T03:33:37;6.20;66.10
23231;DHT22;11784;49.818;8.632;2023-03-12T03:36:04;6.10;65.60
23231;DHT22;11784;49.818;8.632;2023-03-12T03:38:30;6.10;67.70
23231;DHT22;11784;49.818;8.632;2023-03-12T03:40:56;6.20;67.00
23231;DHT22;11784;49.818;8.632;2023-03-12T03:43:22;6.20;67.10
23231;DHT22;11784;49.818;8.632;2023-03-12T03:45:55;6.20;65.80
23231;DHT22;11784;49.818;8.632;2023-03-12T03:48:20;6.20;65.80
23231;DHT22;11784;49.818;8.632;2023-03-12T03:50:46;6.20;66.10
23231;DHT22;11784;49.818;8.632;2023-03-12T03:53:12;6.20;65.80
23231;DHT22;11784;49.818;8.632;2023-03-12T03:55:38;6.10;66.70
23231;DHT22;11784;49.818;8.632;2023-03-12T03:58:05;6.20;67.10
23231;DHT22;11784;49.818;8.632;2023-03-12T04:00:30;6.20;66.40
23231;DHT22;11784;49.818;8.632;2023-03-12T04:02:56;6.20;65.90
23231;DHT22;11784;49.818;8.632;2023-03-12T04:05:22;6.20;66.00
23231;DHT22;11784;49.818;8.632;2023-03-12T04:07:47;6.20;67.10
23231;DHT22;11784;49.818;8.632;2023-03-12T04:10:13;6.20;67.80
23231;DHT22;11784;49.818;8.632;2023-03-12T04:12:39;6.20;67.70
23231;DHT22;11784;49.818;8.632;2023-03-12T04:15:05;6.20;66.80
23231;DHT22;11784;49.818;8.632;2023-03-12T04:17:31;6.30;66.60
23231;DHT22;11784;49.818;8.632;2023-03-12T04:19:56;6.20;66.50
23231;DHT22;11784;49.818;8.632;2023-03-12T04:22:22;6.20;66.60
23231;DHT22;11784;49.818;8.632;2023-03-12T04:24:47;6.30;66.90
23231;DHT22;11784;49.818;8.632;2023-03-12T04:27:13;6.30;67.20
23231;DHT22;11784;49.818;8.632;2023-03-12T04:29:38;6.30;67.40
23231;DHT22;11784;49.818;8.632;2023-03-12T04:32:05;6.30;67.00
23231;DHT22;11784;49.818;8.632;2023-03-12T04:34:31;6.30;66.60
23231;DHT22;11784;49.818;8.632;2023-03-12T04:36:56;6.30;67.30
23231;DHT22;11784;49.818;8.632;2023-03-12T04:39:22;6.30;67.80
23231;DHT22;11784;49.818;8.632;2023-03-12T04:41:48;6.40;68.10
23231;DHT22;11784;49.818;8.632;2023-03-12T04:44:13;6.40;67.90
23231;DHT22;11784;49.818;8.632;2023-03-12T04:46:40;6.40;68.10
23231;DHT22;11784;49.818;8.632;2023-03-12T04:49:05;6.40;67.80
23231;DHT22;11784;49.818;8.632;2023-03-12T04:51:31;6.40;67.80
23231;DHT22;11784;49.818;8.632;2023-03-12T04:53:57;6.40;68.20
23231;DHT22;11784;49.818;8.632;2023-03-12T04:56:23;6.40;68.00
23231;DHT22;11784;49.818;8.632;2023-03-12T04:58:50;6.50;68.10
23231;DHT22;11784;49.818;8.632;2023-03-12T05:01:31;6.50;66.90
23231;DHT22;11784;49.818;8.632;2023-03-12T05:03:57;6.50;65.80
23231;DHT22;11784;49.818;8.632;2023-03-12T05:06:24;6.50;66.70
23231;DHT22;11784;49.818;8.632;2023-03-12T05:08:50;6.60;66.70
23231;DHT22;11784;49.818;8.632;2023-03-12T05:11:16;6.60;66.90
23231;DHT22;11784;49.818;8.632;2023-03-12T05:13:42;6.60;66.80
23231;DHT22;11784;49.818;8.632;2023-03-12T05:16:09;6.60;66.70
23231;DHT22;11784;49.818;8.632;2023-03-12T05:18:35;6.60;67.40
23231;DHT22;11784;49.818;8.632;2023-03-12T05:21:03;6.60;67.20
23231;DHT22;11784;49.818;8.632;2023-03-12T05:23:29;6.70;67.30
23231;DHT22;11784;49.818;8.632;2023-03-12T05:25:55;6.70;66.70
23231;DHT22;11784;49.818;8.632;2023-03-12T05:28:21;6.70;66.30
23231;DHT22;11784;49.818;8.632;2023-03-12T05:30:53;6.70;66.30
23231;DHT22;11784;49.818;8.632;2023-03-12T05:33:18;6.70;66.70
23231;DHT22;11784;49.818;8.632;2023-03-12T05:35:44;6.70;66.90
23231;DHT22;11784;49.818;8.632;2023-03-12T05:38:09;6.70;67.30
23231;DHT22;11784;49.818;8.632;2023-03-12T05:40:35;6.80;67.50
23231;DHT22;11784;49.818;8.632;2023-03-12T05:43:00;6.80;67.90
23231;DHT22;11784;49.818;8.632;2023-03-12T05:45:28;6.80;67.10
23231;DHT22;11784;49.818;8.632;2023-03-12T05:47:54;6.90;67.10
23231;DHT22;11784;49.818;8.632;2023-03-12T05:50:19;6.90;67.40
23231;DHT22;11784;49.818;8.632;2023-03-12T05:52:45;6.90;65.80
23231;DHT22;11784;49.818;8.632;2023-03-12T05:55:10;6.90;65.50
23231;DHT22;11784;49.818;8.632;2023-03-12T05:57:36;6.90;66.00
23231;DHT22;11784;49.818;8.632;2023-03-12T06:00:02;6.90;65.40
23231;DHT22;11784;49.818;8.632;2023-03-12T06:02:28;6.90;65.50
23231;DHT22;11784;49.818;8.632;2023-03-12T06:04:53;6.90;64.90
23231;DHT22;11784;49.818;8.632;2023-03-12T06:07:18;6.90;64.70
23231;DHT22;11784;49.818;8.632;2023-03-12T06:09:44;6.90;64.70
23231;DHT22;11784;49.818;8.632;2023-03-12T06:12:09;6.90;65.50
23231;DHT22;11784;49.818;8.632;2023-03-12T06:14:35;6.80;66.40
23231;DHT22;11784;49.818;8.632;2023-03-12T06:17:01;6.80;67.10
23231;DHT22;11784;49.818;8.632;2023-03-12T06:19:26;6.80;67.10
23231;DHT22;11784;49.818;8.632;2023-03-12T06:21:52;6.80;66.50
23231;DHT22;11784;49.818;8.632;2023-03-12T06:24:17;6.80;65.50
23231;DHT22;11784;49.818;8.632;2023-03-12T06:26:43;6.80;64.90
23231;DHT22;11784;49.818;8.632;2023-03-12T06:29:08;6.80;64.40
23231;DHT22;11784;49.818;8.632;2023-03-12T06:31:34;6.80;65.00
23231;DHT22;11784;49.818;8.632;2023-03-12T06:34:00;6.80;65.40
23231;DHT22;11784;49.818;8.632;2023-03-12T06:36:26;6.80;65.70
23231;DHT22;11784;49.818;8.632;2023-03-12T06:38:52;6.80;65.50
23231;DHT22;11784;49.818;8.632;2023-03-12T06:41:18;6.90;66.30
23231;DHT22;11784;49.818;8.632;2023-03-12T06:43:44;6.90;65.70
23231;DHT22;11784;49.818;8.632;2023-03-12T06:46:15;7.00;66.50
23231;DHT22;11784;49.818;8.632;2023-03-12T06:48:41;7.00;66.50
23231;DHT22;11784;49.818;8.632;2023-03-12T06:51:08;7.10;66.80
23231;DHT22;11784;49.818;8.632;2023-03-12T06:53:34;7.10;67.20
23231;DHT22;11784;49.818;8.632;2023-03-12T06:56:00;7.20;66.90
23231;DHT22;11784;49.818;8.632;2023-03-12T06:58:26;7.20;67.30
23231;DHT22;11784;49.818;8.632;2023-03-12T07:00:52;7.30;67.60
23231;DHT22;11784;49.818;8.632;2023-03-12T07:03:17;7.30;66.90
23231;DHT22;11784;49.818;8.632;2023-03-12T07:05:45;7.40;66.30
23231;DHT22;11784;49.818;8.632;2023-03-12T07:08:13;7.40;66.40
23231;DHT22;11784;49.818;8.632;2023-03-12T07:10:45;7.40;67.70
23231;DHT22;11784;49.818;8.632;2023-03-12T07:13:12;7.40;66.90
23231;DHT22;11784;49.818;8.632;2023-03-12T07:15:38;7.50;67.00
23231;DHT22;11784;49.818;8.632;2023-03-12T07:18:05;7.50;67.60
23231;DHT22;11784;49.818;8.632;2023-03-12T07:20:31;7.50;67.70
23231;DHT22;11784;49.818;8.632;2023-03-12T07:22:58;7.50;68.50
23231;DHT22;11784;49.818;8.632;2023-03-12T07:25:24;7.50;67.70
23231;DHT22;11784;49.818;8.632;2023-03-12T07:27:50;7.60;69.00
23231;DHT22;11784;49.818;8.632;2023-03-12T07:30:16;7.60;69.40
23231;DHT22;11784;49.818;8.632;2023-03-12T07:32:41;7.70;69.40
23231;DHT22;11784;49.818;8.632;2023-03-12T07:35:07;7.70;68.70
23231;DHT22;11784;49.818;8.632;2023-03-12T07:37:33;7.80;69.50
23231;DHT22;11784;49.818;8.632;2023-03-12T07:39:59;7.80;70.20
23231;DHT22;11784;49.818;8.632;2023-03-12T07:42:25;7.80;70.60
23231;DHT22;11784;49.818;8.632;2023-03-12T07:44:50;7.80;71.70
23231;DHT22;11784;49.818;8.632;2023-03-12T07:47:16;7.80;73.40
23231;DHT22;11784;49.818;8.632;2023-03-12T07:49:41;7.80;74.00
23231;DHT22;11784;49.818;8.632;2023-03-12T07:52:08;7.80;74.60
23231;DHT22;11784;49.818;8.632;2023-03-12T07:54:36;7.80;74.80
23231;DHT22;11784;49.818;8.632;2023-03-12T07:57:02;7.90;74.60
23231;DHT22;11784;49.818;8.632;2023-03-12T07:59:27;7.90;74.50
23231;DHT22;11784;49.818;8.632;2023-03-12T08:01:53;7.90;74.60
23231;DHT22;11784;49.818;8.632;2023-03-12T08:04:18;7.90;75.00
23231;DHT22;11784;49.818;8.632;2023-03-12T08:06:44;7.90;75.90
23231;DHT22;11784;49.818;8.632;2023-03-12T08:09:10;7.90;76.80
23231;DHT22;11784;49.818;8.632;2023-03-12T08:11:35;7.90;77.20
23231;DHT22;11784;49.818;8.632;2023-03-12T08:14:02;7.90;77.70
23231;DHT22;11784;49.818;8.632;2023-03-12T08:16:28;7.90;78.50
23231;DHT22;11784;49.818;8.632;2023-03-12T08:18:54;7.90;79.40
23231;DHT22;11784;49.818;8.632;2023-03-12T08:21:19;7.90;80.20
23231;DHT22;11784;49.818;8.632;2023-03-12T08:23:45;7.80;80.80
23231;DHT22;11784;49.818;8.632;2023-03-12T08:26:11;7.80;81.70
23231;DHT22;11784;49.818;8.632;2023-03-12T08:28:36;7.80;82.30
23231;DHT22;11784;49.818;8.632;2023-03-12T08:31:02;7.70;82.60
23231;DHT22;11784;49.818;8.632;2023-03-12T08:33:27;7.70;83.30
23231;DHT22;11784;49.818;8.632;2023-03-12T08:35:53;7.60;83.70
23231;DHT22;11784;49.818;8.632;2023-03-12T08:38:19;7.50;84.10
23231;DHT22;11784;49.818;8.632;2023-03-12T08:40:45;7.50;84.80
23231;DHT22;11784;49.818;8.632;2023-03-12T08:43:11;7.40;84.80
23231;DHT22;11784;49.818;8.632;2023-03-12T08:45:36;7.40;85.70
23231;DHT22;11784;49.818;8.632;2023-03-12T08:48:03;7.40;85.50
23231;DHT22;11784;49.818;8.632;2023-03-12T08:50:29;7.40;85.60
23231;DHT22;11784;49.818;8.632;2023-03-12T08:52:57;7.40;85.50
23231;DHT22;11784;49.818;8.632;2023-03-12T08:55:22;7.50;86.20
23231;DHT22;11784;49.818;8.632;2023-03-12T08:57:48;7.40;85.60
23231;DHT22;11784;49.818;8.632;2023-03-12T09:00:14;7.40;85.90
23231;DHT22;11784;49.818;8.632;2023-03-12T09:02:43;7.40;85.60
23231;DHT22;11784;49.818;8.632;2023-03-12T09:05:09;7.40;85.80
23231;DHT22;11784;49.818;8.632;2023-03-12T09:07:35;7.30;85.90
23231;DHT22;11784;49.818;8.632;2023-03-12T09:10:04;7.30;86.50
23231;DHT22;11784;49.818;8.632;2023-03-12T09:12:30;7.30;86.40
23231;DHT22;11784;49.818;8.632;2023-03-12T09:14:56;7.40;86.70
23231;DHT22;11784;49.818;8.632;2023-03-12T09:17:21;7.40;86.90
23231;DHT22;11784;49.818;8.632;2023-03-12T09:19:47;7.30;87.10
23231;DHT22;11784;49.818;8.632;2023-03-12T09:22:13;7.40;87.40
23231;DHT22;11784;49.818;8.632;2023-03-12T09:24:38;7.40;87.70
23231;DHT22;11784;49.818;8.632;2023-03-12T09:27:04;7.40;88.20
23231;DHT22;11784;49.818;8.632;2023-03-12T09:29:30;7.50;88.70
23231;DHT22;11784;49.818;8.632;2023-03-12T09:31:56;7.60;87.80
23231;DHT22;11784;49.818;8.632;2023-03-12T09:34:21;7.70;87.50
23231;DHT22;11784;49.818;8.632;2023-03-12T09:36:47;7.80;87.60
23231;DHT22;11784;49.818;8.632;2023-03-12T09:39:13;7.80;87.00
23231;DHT22;11784;49.818;8.632;2023-03-12T09:41:39;7.80;86.90
23231;DHT22;11784;49.818;8.632;2023-03-12T09:44:37;7.90;87.10
23231;DHT22;11784;49.818;8.632;2023-03-12T09:47:18;8.00;87.30
23231;DHT22;11784;49.818;8.632;2023-03-12T09:49:49;8.00;87.00
23231;DHT22;11784;49.818;8.632;2023-03-12T09:52:33;7.90;88.60
23231;DHT22;11784;49.818;8.632;2023-03-12T09:55:19;8.00;88.20
23231;DHT22;11784;49.818;8.632;2023-03-12T09:57:47;8.00;88.10
23231;DHT22;11784;49.818;8.632;2023-03-12T10:00:17;8.10;88.30
23231;DHT22;11784;49.818;8.632;2023-03-12T10:08:40;8.10;89.00
23231;DHT22;11784;49.818;8.632;2023-03-12T10:11:29;8.10;88.60
23231;DHT22;11784;49.818;8.632;2023-03-12T10:16:46;8.20;89.50
23231;DHT22;11784;49.818;8.632;2023-03-12T10:22:29;8.20;90.00
23231;DHT22;11784;49.818;8.632;2023-03-12T10:25:20;8.30;90.20
23231;DHT22;11784;49.818;8.632;2023-03-12T10:27:48;8.40;90.00
23231;DHT22;11784;49.818;8.632;2023-03-12T10:30:21;8.40;89.80
23231;DHT22;11784;49.818;8.632;2023-03-12T10:32:52;8.40;89.50
23231;DHT22;11784;49.818;8.632;2023-03-12T10:35:23;8.50;89.90
23231;DHT22;11784;49.818;8.632;2023-03-12T10:38:03;8.60;90.00
23231;DHT22;11784;49.818;8.632;2023-03-12T10:40:35;8.70;89.90
23231;DHT22;11784;49.818;8.632;2023-03-12T10:43:02;8.80;89.90
23231;DHT22;11784;49.818;8.632;2023-03-12T10:48:09;8.90;89.40
23231;DHT22;11784;49.818;8.632;2023-03-12T10:50:38;8.90;89.20
23231;DHT22;11784;49.818;8.632;2023-03-12T10:53:42;9.00;88.60
23231;DHT22;11784;49.818;8.632;2023-03-12T10:56:18;9.00;88.30
23231;DHT22;11784;49.818;8.632;2023-03-12T10:58:49;9.10;88.80
23231;DHT22;11784;49.818;8.632;2023-03-12T11:01:33;9.10;88.50
23231;DHT22;11784;49.818;8.632;2023-03-12T11:04:18;9.20;88.00
23231;DHT22;11784;49.818;8.632;2023-03-12T11:09:30;9.30;88.20
23231;DHT22;11784;49.818;8.632;2023-03-12T11:11:55;9.30;89.00
23231;DHT22;11784;49.818;8.632;2023-03-12T11:14:26;9.30;89.60
23231;DHT22;11784;49.818;8.632;2023-03-12T11:16:54;9.40;89.40
23231;DHT22;11784;49.818;8.632;2023-03-12T11:19:32;9.60;89.30
23231;DHT22;11784;49.818;8.632;2023-03-12T11:22:06;9.80;88.90
23231;DHT22;11784;49.818;8.632;2023-03-12T11:24:57;9.90;88.80
23231;DHT22;11784;49.818;8.632;2023-03-12T11:27:40;10.10;87.10
23231;DHT22;11784;49.818;8.632;2023-03-12T11:30:11;10.30;87.10
23231;DHT22;11784;49.818;8.632;2023-03-12T11:32:42;10.40;86.90
23231;DHT22;11784;49.818;8.632;2023-03-12T11:35:11;10.60;85.10
23231;DHT22;11784;49.818;8.632;2023-03-12T11:38:00;10.60;84.50
23231;DHT22;11784;49.818;8.632;2023-03-12T11:46:42;10.70;85.10
23231;DHT22;11784;49.818;8.632;2023-03-12T11:57:58;10.80;86.20
23231;DHT22;11784;49.818;8.632;2023-03-12T12:00:44;10.90;86.30
23231;DHT22;11784;49.818;8.632;2023-03-12T12:11:48;11.20;84.70
23231;DHT22;11784;49.818;8.632;2023-03-12T12:26:11;11.40;84.20
23231;DHT22;11784;49.818;8.632;2023-03-12T12:31:49;11.60;85.40
23231;DHT22;11784;49.818;8.632;2023-03-12T12:34:34;11.70;85.10
23231;DHT22;11784;49.818;8.632;2023-03-12T12:39:46;12.10;85.40
23231;DHT22;11784;49.818;8.632;2023-03-12T12:42:17;12.20;84.70
23231;DHT22;11784;49.818;8.632;2023-03-12T12:44:50;12.30;84.40
23231;DHT22;11784;49.818;8.632;2023-03-12T12:47:39;12.40;82.80
23231;DHT22;11784;49.818;8.632;2023-03-12T12:50:10;12.50;83.90
23231;DHT22;11784;49.818;8.632;2023-03-12T12:52:38;12.60;82.90
23231;DHT22;11784;49.818;8.632;2023-03-12T12:55:23;12.70;82.70
23231;DHT22;11784;49.818;8.632;2023-03-12T12:57:58;12.80;81.80
23231;DHT22;11784;49.818;8.632;2023-03-12T13:03:00;12.80;81.50
23231;DHT22;11784;49.818;8.632;2023-03-12T13:08:00;12.90;82.90
23231;DHT22;11784;49.818;8.632;2023-03-12T13:13:08;12.90;82.30
23231;DHT22;11784;49.818;8.632;2023-03-12T13:15:39;12.90;83.00
23231;DHT22;11784;49.818;8.632;2023-03-12T13:18:23;12.90;82.90
23231;DHT22;11784;49.818;8.632;2023-03-12T13:23:47;12.90;82.60
23231;DHT22;11784;49.818;8.632;2023-03-12T13:26:48;12.80;83.20
23231;DHT22;11784;49.818;8.632;2023-03-12T13:29:42;12.70;83.50
23231;DHT22;11784;49.818;8.632;2023-03-12T13:34:59;12.60;84.40
23231;DHT22;11784;49.818;8.632;2023-03-12T13:45:33;12.40;85.50
23231;DHT22;11784;49.818;8.632;2023-03-12T13:48:04;12.50;86.10
23231;DHT22;11784;49.818;8.632;2023-03-12T13:50:31;12.40;86.40
23231;DHT22;11784;49.818;8.632;2023-03-12T13:53:15;12.50;86.20
23231;DHT22;11784;49.818;8.632;2023-03-12T13:55:44;12.50;86.30
23231;DHT22;11784;49.818;8.632;2023-03-12T13:58:16;12.50;86.20
23231;DHT22;11784;49.818;8.632;2023-03-12T14:03:39;12.60;86.10
23231;DHT22;11784;49.818;8.632;2023-03-12T14:06:09;12.70;86.30
23231;DHT22;11784;49.818;8.632;2023-03-12T14:09:10;12.80;86.20
23231;DHT22;11784;49.818;8.632;2023-03-12T14:14:45;13.00;85.70
23231;DHT22;11784;49.818;8.632;2023-03-12T14:17:24;13.00;85.50
23231;DHT22;11784;49.818;8.632;2023-03-12T14:20:10;13.10;85.20
23231;DHT22;11784;49.818;8.632;2023-03-12T14:22:38;13.10;84.90
23231;DHT22;11784;49.818;8.632;2023-03-12T14:25:33;13.20;85.00
23231;DHT22;11784;49.818;8.632;2023-03-12T14:28:01;13.20;84.80
23231;DHT22;11784;49.818;8.632;2023-03-12T14:30:40;13.20;85.00
23231;DHT22;11784;49.818;8.632;2023-03-12T14:33:11;13.30;85.00
23231;DHT22;11784;49.818;8.632;2023-03-12T14:36:10;13.30;85.00
23231;DHT22;11784;49.818;8.632;2023-03-12T14:38:41;13.30;85.00
23231;DHT22;11784;49.818;8.632;2023-03-12T14:41:14;13.40;84.80
23231;DHT22;11784;49.818;8.632;2023-03-12T14:43:42;13.50;85.10
23231;DHT22;11784;49.818;8.632;2023-03-12T14:46:15;13.50;84.90
23231;DHT22;11784;49.818;8.632;2023-03-12T14:48:41;13.60;84.20
23231;DHT22;11784;49.818;8.632;2023-03-12T14:51:35;13.60;83.40
23231;DHT22;11784;49.818;8.632;2023-03-12T14:54:02;13.80;82.30
23231;DHT22;11784;49.818;8.632;2023-03-12T14:56:30;14.00;80.10
23231;DHT22;11784;49.818;8.632;2023-03-12T14:59:19;14.20;79.10
23231;DHT22;11784;49.818;8.632;2023-03-12T15:01:45;14.30;78.30
23231;DHT22;11784;49.818;8.632;2023-03-12T15:04:17;14.40;77.60
23231;DHT22;11784;49.818;8.632;2023-03-12T15:06:46;14.40;77.70
23231;DHT22;11784;49.818;8.632;2023-03-12T15:09:17;14.50;77.20
23231;DHT22;11784;49.818;8.632;2023-03-12T15:11:43;14.40;76.80
23231;DHT22;11784;49.818;8.632;2023-03-12T15:14:15;14.40;76.90
23231;DHT22;11784;49.818;8.632;2023-03-12T15:16:42;14.30;77.10
23231;DHT22;11784;49.818;8.632;2023-03-12T15:19:17;14.20;77.50
23231;DHT22;11784;49.818;8.632;2023-03-12T15:21:44;14.10;78.20
23231;DHT22;11784;49.818;8.632;2023-03-12T15:24:12;14.00;78.70
23231;DHT22;11784;49.818;8.632;2023-03-12T15:26:39;14.00;78.80
23231;DHT22;11784;49.818;8.632;2023-03-12T15:29:21;13.90;79.60
23231;DHT22;11784;49.818;8.632;2023-03-12T15:31:58;13.90;79.90
23231;DHT22;11784;49.818;8.632;2023-03-12T15:34:35;13.90;80.00
23231;DHT22;11784;49.818;8.632;2023-03-12T15:40:28;13.90;80.70
23231;DHT22;11784;49.818;8.632;2023-03-12T15:42:55;14.00;80.50
23231;DHT22;11784;49.818;8.632;2023-03-12T15:45:37;14.00;80.00
23231;DHT22;11784;49.818;8.632;2023-03-12T15:48:13;14.00;79.80
23231;DHT22;11784;49.818;8.632;2023-03-12T15:50:42;14.00;79.80
23231;DHT22;11784;49.818;8.632;2023-03-12T15:55:39;14.00;79.80
23231;DHT22;11784;49.818;8.632;2023-03-12T16:00:52;13.90;79.10
23231;DHT22;11784;49.818;8.632;2023-03-12T16:03:19;13.90;79.20
23231;DHT22;11784;49.818;8.632;2023-03-12T16:05:48;13.90;79.40
23231;DHT22;11784;49.818;8.632;2023-03-12T16:08:14;13.90;79.70
23231;DHT22;11784;49.818;8.632;2023-03-12T16:10:41;13.90;79.40
23231;DHT22;11784;49.818;8.632;2023-03-12T16:13:12;13.90;80.00
23231;DHT22;11784;49.818;8.632;2023-03-12T16:15:38;13.90;78.90
23231;DHT22;11784;49.818;8.632;2023-03-12T16:18:04;13.90;78.90
23231;DHT22;11784;49.818;8.632;2023-03-12T16:20:35;13.90;78.20
23231;DHT22;11784;49.818;8.632;2023-03-12T16:23:01;13.80;78.50
23231;DHT22;11784;49.818;8.632;2023-03-12T16:25:26;13.70;78.60
23231;DHT22;11784;49.818;8.632;2023-03-12T16:27:55;13.70;78.70
23231;DHT22;11784;49.818;8.632;2023-03-12T16:30:33;13.70;78.80
23231;DHT22;11784;49.818;8.632;2023-03-12T16:32:59;13.70;79.00
23231;DHT22;11784;49.818;8.632;2023-03-12T16:35:25;13.60;78.90
23231;DHT22;11784;49.818;8.632;2023-03-12T16:37:56;13.60;78.80
23231;DHT22;11784;49.818;8.632;2023-03-12T16:40:22;13.60;78.90
23231;DHT22;11784;49.818;8.632;2023-03-12T16:42:49;13.70;78.80
23231;DHT22;11784;49.818;8.632;2023-03-12T16:45:17;13.60;78.60
23231;DHT22;11784;49.818;8.632;2023-03-12T16:47:43;13.60;78.80
23231;DHT22;11784;49.818;8.632;2023-03-12T16:50:20;13.60;78.80
23231;DHT22;11784;49.818;8.632;2023-03-12T16:52:47;13.60;78.30
23231;DHT22;11784;49.818;8.632;2023-03-12T16:55:19;13.60;77.80
23231;DHT22;11784;49.818;8.632;2023-03-12T16:57:49;13.60;77.30
23231;DHT22;11784;49.818;8.632;2023-03-12T17:00:21;13.50;76.90
23231;DHT22;11784;49.818;8.632;2023-03-12T17:02:48;13.50;77.10
23231;DHT22;11784;49.818;8.632;2023-03-12T17:05:14;13.50;77.10
23231;DHT22;11784;49.818;8.632;2023-03-12T17:07:40;13.50;77.30
23231;DHT22;11784;49.818;8.632;2023-03-12T17:10:06;13.50;77.40
23231;DHT22;11784;49.818;8.632;2023-03-12T17:12:36;13.50;77.30
23231;DHT22;11784;49.818;8.632;2023-03-12T17:15:06;13.40;77.60
23231;DHT22;11784;49.818;8.632;2023-03-12T17:17:33;13.50;77.70
23231;DHT22;11784;49.818;8.632;2023-03-12T17:19:58;13.40;78.00
23231;DHT22;11784;49.818;8.632;2023-03-12T17:22:25;13.40;78.20
23231;DHT22;11784;49.818;8.632;2023-03-12T17:24:52;13.40;77.70
23231;DHT22;11784;49.818;8.632;2023-03-12T17:27:17;13.40;76.90
23231;DHT22;11784;49.818;8.632;2023-03-12T17:29:43;13.40;76.60
23231;DHT22;11784;49.818;8.632;2023-03-12T17:32:14;13.30;76.40
23231;DHT22;11784;49.818;8.632;2023-03-12T17:34:40;13.30;77.00
23231;DHT22;11784;49.818;8.632;2023-03-12T17:37:10;13.30;77.40
23231;DHT22;11784;49.818;8.632;2023-03-12T17:39:36;13.30;77.90